Aviation Digital Data Service (ADDS)

Output produced by METARs form (1546 UTC 03 June 2020)
found at http://www.aviationweather.gov/metar/data/
 
METAR text: KGYI 031450Z 22010KT 10SM SKC 28/22 A3004
Conditions at: KGYI (SHERMAN/DENISON , TX, US) observed 1450 UTC 03 June 2020
Temperature: 28.0°C (82°F)
Dewpoint: 22.0°C (72°F) [RH = 70%]
Pressure (altimeter): 30.04 inches Hg (1017.4 mb)
Winds: from the SW (220 degrees) at 12 MPH (10 knots; 5.1 m/s)
Visibility: 10 or more miles (16+ km)
Ceiling: at least 12,000 feet AGL
Clouds: clear skies
Weather: no significant weather observed at this time